This is the latest recevied weather packets stored in our database for station/object W1CAT. If no packets are shown the sender has not sent any weather packets the latest 10 day(s).
| Time | Temp. | Humidity | Pressure | Rain* | Wind** | Luminosity | Snow |
|---|---|---|---|---|---|---|---|
| 1777503469 | 13.89° C | 25% | - | 0 mm | - | - | - |
| 1777503164 | 13.89° C | 25% | - | 0 mm | - | - | - |
| 1777502862 | 15.56° C | 24% | - | 0 mm | - | - | - |
| 1777502560 | 15° C | 23% | - | 0 mm | - | - | - |
| 1777502257 | 15° C | 24% | - | 0 mm | - | - | - |
| 1777501954 | 15.56° C | 23% | - | 0 mm | - | - | - |
| 1777501651 | 15° C | 24% | - | 0 mm | - | - | - |
| 1777501347 | 14.44° C | 24% | - | 0 mm | - | - | - |
| 1777501045 | 14.44° C | 25% | - | 0 mm | - | - | - |
| 1777500743 | 13.89° C | 25% | - | 0 mm | - | - | - |
| 1777500440 | 13.33° C | 26% | - | 0 mm | - | - | - |
| 1777500135 | 14.44° C | 25% | - | 0 mm | - | - | - |
| 1777499833 | 17.22° C | 23% | - | 0 mm | - | - | - |
| 1777499529 | 15.56° C | 25% | - | 0 mm | - | - | - |
| 1777499227 | 13.89° C | 27% | - | 0 mm | - | - | - |
| 1777498924 | 12.78° C | 27% | - | 0 mm | - | - | - |
| 1777498621 | 12.78° C | 28% | - | 0 mm | - | - | - |
| 1777498316 | 12.22° C | 30% | - | 0 mm | - | - | - |
| 1777498015 | 11.67° C | 32% | - | 0 mm | - | - | - |
| 1777497711 | 11.11° C | 34% | - | 0 mm | - | - | - |
| 1777497408 | 11.11° C | 34% | - | 0 mm | - | - | - |
| 1777497103 | 11.67° C | 34% | - | 0 mm | - | - | - |
| 1777496800 | 13.89° C | 33% | - | 0 mm | - | - | - |
| 1777496497 | 13.89° C | 29% | - | 0 mm | - | - | - |
| 1777496193 | 13.89° C | 28% | - | 0 mm | - | - | - |
* Rain latest hour (hover to see other rain measurements)
** Current wind speed in m/s (hover to see current wind gust speed)